Terminal Aerodrome Forecast
Issued by NWS

Current Version | Previous Version | Graphics & Text | Print | Product List | Glossary On
Versions: 1 2 3 4 5 6 7 8 9 10 11 12 13 14 15 16 17 18 19
000
FTUS41 KILN 211100
TAFLCK
TAF
KLCK 211135Z 2112/2212 30004KT P6SM SKC
      TEMPO 2117/2121 VRB04KT SCT020
     FM212100 17004KT P6SM SCT250
     FM220800 14005KT P6SM BKN040
      TEMPO 2209/2212 BKN030=

USA.gov is the U.S. government's official web portal to all federal, state and local government web resources and services.